sensor_id;sensor_type;location;lat;lon;timestamp;P1;durP1;ratioP1;P2;durP2;ratioP2
15665;SDS011;20725;51.196;3.510;2022-08-01T00:02:20;33.40;;;14.27;;
15665;SDS011;20725;51.196;3.510;2022-08-01T00:04:47;26.10;;;13.53;;
15665;SDS011;20725;51.196;3.510;2022-08-01T00:07:15;29.07;;;15.03;;
15665;SDS011;20725;51.196;3.510;2022-08-01T00:09:42;27.10;;;14.57;;
15665;SDS011;20725;51.196;3.510;2022-08-01T00:12:09;22.93;;;14.60;;
15665;SDS011;20725;51.196;3.510;2022-08-01T00:14:36;27.03;;;15.23;;
15665;SDS011;20725;51.196;3.510;2022-08-01T00:17:03;30.80;;;16.60;;
15665;SDS011;20725;51.196;3.510;2022-08-01T00:19:32;25.93;;;14.30;;
15665;SDS011;20725;51.196;3.510;2022-08-01T00:21:59;27.10;;;13.77;;
15665;SDS011;20725;51.196;3.510;2022-08-01T00:24:27;20.63;;;14.10;;
15665;SDS011;20725;51.196;3.510;2022-08-01T00:26:54;18.87;;;13.13;;
15665;SDS011;20725;51.196;3.510;2022-08-01T00:29:21;23.10;;;13.03;;
15665;SDS011;20725;51.196;3.510;2022-08-01T00:31:48;19.17;;;11.17;;
15665;SDS011;20725;51.196;3.510;2022-08-01T00:34:15;13.70;;;8.40;;
15665;SDS011;20725;51.196;3.510;2022-08-01T00:36:44;12.17;;;8.30;;
15665;SDS011;20725;51.196;3.510;2022-08-01T00:39:11;15.90;;;8.60;;
15665;SDS011;20725;51.196;3.510;2022-08-01T00:41:38;11.93;;;7.73;;
15665;SDS011;20725;51.196;3.510;2022-08-01T00:44:06;12.57;;;7.37;;
15665;SDS011;20725;51.196;3.510;2022-08-01T00:46:33;12.80;;;6.77;;
15665;SDS011;20725;51.196;3.510;2022-08-01T00:49:01;6.90;;;4.67;;
15665;SDS011;20725;51.196;3.510;2022-08-01T00:51:28;6.83;;;3.10;;
15665;SDS011;20725;51.196;3.510;2022-08-01T00:53:58;5.87;;;2.77;;
15665;SDS011;20725;51.196;3.510;2022-08-01T00:56:25;6.67;;;2.60;;
15665;SDS011;20725;51.196;3.510;2022-08-01T00:58:53;4.83;;;1.90;;
15665;SDS011;20725;51.196;3.510;2022-08-01T01:01:21;4.63;;;2.03;;
15665;SDS011;20725;51.196;3.510;2022-08-01T01:03:49;2.03;;;1.53;;
15665;SDS011;20725;51.196;3.510;2022-08-01T01:06:23;4.20;;;1.33;;
15665;SDS011;20725;51.196;3.510;2022-08-01T01:08:58;2.93;;;1.43;;
15665;SDS011;20725;51.196;3.510;2022-08-01T01:11:41;4.70;;;1.60;;
15665;SDS011;20725;51.196;3.510;2022-08-01T01:14:18;3.17;;;1.40;;
15665;SDS011;20725;51.196;3.510;2022-08-01T01:16:53;3.80;;;1.37;;
15665;SDS011;20725;51.196;3.510;2022-08-01T01:19:23;2.20;;;1.63;;
15665;SDS011;20725;51.196;3.510;2022-08-01T01:21:59;3.57;;;1.50;;
15665;SDS011;20725;51.196;3.510;2022-08-01T01:24:37;4.40;;;1.70;;
15665;SDS011;20725;51.196;3.510;2022-08-01T01:27:21;3.40;;;1.50;;
15665;SDS011;20725;51.196;3.510;2022-08-01T01:29:57;1.90;;;1.50;;
15665;SDS011;20725;51.196;3.510;2022-08-01T01:32:28;2.17;;;1.40;;
15665;SDS011;20725;51.196;3.510;2022-08-01T01:35:00;1.83;;;1.27;;
15665;SDS011;20725;51.196;3.510;2022-08-01T01:37:30;3.30;;;1.50;;
15665;SDS011;20725;51.196;3.510;2022-08-01T01:40:00;4.63;;;1.70;;
15665;SDS011;20725;51.196;3.510;2022-08-01T01:42:29;2.67;;;1.33;;
15665;SDS011;20725;51.196;3.510;2022-08-01T01:44:59;4.00;;;1.57;;
15665;SDS011;20725;51.196;3.510;2022-08-01T01:47:29;2.67;;;1.60;;
15665;SDS011;20725;51.196;3.510;2022-08-01T01:49:57;4.13;;;1.43;;
15665;SDS011;20725;51.196;3.510;2022-08-01T01:52:27;4.00;;;1.60;;
15665;SDS011;20725;51.196;3.510;2022-08-01T01:54:56;2.70;;;1.67;;
15665;SDS011;20725;51.196;3.510;2022-08-01T01:57:25;2.60;;;1.57;;
15665;SDS011;20725;51.196;3.510;2022-08-01T01:59:54;1.63;;;1.50;;
15665;SDS011;20725;51.196;3.510;2022-08-01T02:02:33;2.00;;;1.80;;
15665;SDS011;20725;51.196;3.510;2022-08-01T02:05:07;2.97;;;1.60;;
15665;SDS011;20725;51.196;3.510;2022-08-01T02:07:59;1.83;;;1.70;;
15665;SDS011;20725;51.196;3.510;2022-08-01T02:11:04;2.03;;;1.50;;
15665;SDS011;20725;51.196;3.510;2022-08-01T02:14:13;3.53;;;1.57;;
15665;SDS011;20725;51.196;3.510;2022-08-01T02:16:49;3.83;;;1.67;;
15665;SDS011;20725;51.196;3.510;2022-08-01T02:19:43;2.90;;;1.80;;
15665;SDS011;20725;51.196;3.510;2022-08-01T02:23:04;2.73;;;1.57;;
15665;SDS011;20725;51.196;3.510;2022-08-01T02:25:42;3.87;;;1.80;;
15665;SDS011;20725;51.196;3.510;2022-08-01T02:28:17;3.80;;;1.80;;
15665;SDS011;20725;51.196;3.510;2022-08-01T02:31:30;4.07;;;2.00;;
15665;SDS011;20725;51.196;3.510;2022-08-01T02:34:12;3.03;;;1.70;;
15665;SDS011;20725;51.196;3.510;2022-08-01T02:40:12;2.00;;;1.70;;
15665;SDS011;20725;51.196;3.510;2022-08-01T02:43:07;2.63;;;1.87;;
15665;SDS011;20725;51.196;3.510;2022-08-01T02:45:48;3.20;;;1.60;;
15665;SDS011;20725;51.196;3.510;2022-08-01T02:48:47;3.07;;;1.90;;
15665;SDS011;20725;51.196;3.510;2022-08-01T02:51:51;2.57;;;1.93;;
15665;SDS011;20725;51.196;3.510;2022-08-01T02:54:47;2.40;;;1.90;;
15665;SDS011;20725;51.196;3.510;2022-08-01T02:57:32;2.73;;;1.60;;
15665;SDS011;20725;51.196;3.510;2022-08-01T03:00:35;4.90;;;2.30;;
15665;SDS011;20725;51.196;3.510;2022-08-01T03:03:16;1.90;;;1.80;;
15665;SDS011;20725;51.196;3.510;2022-08-01T03:05:46;2.20;;;2.00;;
15665;SDS011;20725;51.196;3.510;2022-08-01T03:08:32;4.20;;;1.43;;
15665;SDS011;20725;51.196;3.510;2022-08-01T03:11:04;2.50;;;1.70;;
15665;SDS011;20725;51.196;3.510;2022-08-01T03:16:25;2.57;;;1.33;;
15665;SDS011;20725;51.196;3.510;2022-08-01T03:19:17;2.30;;;1.23;;
15665;SDS011;20725;51.196;3.510;2022-08-01T03:22:04;1.40;;;1.30;;
15665;SDS011;20725;51.196;3.510;2022-08-01T03:24:57;1.13;;;1.13;;
15665;SDS011;20725;51.196;3.510;2022-08-01T03:27:34;1.10;;;1.00;;
15665;SDS011;20725;51.196;3.510;2022-08-01T03:30:27;1.17;;;1.07;;
15665;SDS011;20725;51.196;3.510;2022-08-01T03:33:06;1.73;;;1.20;;
15665;SDS011;20725;51.196;3.510;2022-08-01T03:35:37;1.10;;;1.00;;
15665;SDS011;20725;51.196;3.510;2022-08-01T03:38:08;1.20;;;1.10;;
15665;SDS011;20725;51.196;3.510;2022-08-01T03:40:43;1.63;;;1.10;;
15665;SDS011;20725;51.196;3.510;2022-08-01T03:43:18;1.50;;;1.40;;
15665;SDS011;20725;51.196;3.510;2022-08-01T03:45:54;1.50;;;1.20;;
15665;SDS011;20725;51.196;3.510;2022-08-01T03:48:35;1.87;;;1.37;;
15665;SDS011;20725;51.196;3.510;2022-08-01T03:51:07;1.87;;;1.30;;
15665;SDS011;20725;51.196;3.510;2022-08-01T03:53:45;2.53;;;1.33;;
15665;SDS011;20725;51.196;3.510;2022-08-01T03:56:22;2.60;;;1.30;;
15665;SDS011;20725;51.196;3.510;2022-08-01T03:58:59;1.10;;;1.10;;
15665;SDS011;20725;51.196;3.510;2022-08-01T04:07:26;1.43;;;1.30;;
15665;SDS011;20725;51.196;3.510;2022-08-01T04:10:02;1.43;;;1.30;;
15665;SDS011;20725;51.196;3.510;2022-08-01T04:12:58;1.20;;;1.20;;
15665;SDS011;20725;51.196;3.510;2022-08-01T04:16:00;1.30;;;1.20;;
15665;SDS011;20725;51.196;3.510;2022-08-01T04:18:33;1.30;;;1.20;;
15665;SDS011;20725;51.196;3.510;2022-08-01T04:21:17;1.43;;;1.30;;
15665;SDS011;20725;51.196;3.510;2022-08-01T04:23:47;2.83;;;1.60;;
15665;SDS011;20725;51.196;3.510;2022-08-01T04:26:40;2.70;;;1.60;;
15665;SDS011;20725;51.196;3.510;2022-08-01T04:29:16;1.70;;;1.60;;
15665;SDS011;20725;51.196;3.510;2022-08-01T04:32:13;2.20;;;1.73;;
15665;SDS011;20725;51.196;3.510;2022-08-01T04:35:02;1.63;;;1.53;;
15665;SDS011;20725;51.196;3.510;2022-08-01T04:37:43;5.80;;;2.10;;
15665;SDS011;20725;51.196;3.510;2022-08-01T04:40:21;1.93;;;1.70;;
15665;SDS011;20725;51.196;3.510;2022-08-01T04:43:05;3.00;;;2.03;;
15665;SDS011;20725;51.196;3.510;2022-08-01T04:45:37;2.33;;;2.10;;
15665;SDS011;20725;51.196;3.510;2022-08-01T04:48:25;2.50;;;2.30;;
15665;SDS011;20725;51.196;3.510;2022-08-01T04:51:30;2.60;;;2.10;;
15665;SDS011;20725;51.196;3.510;2022-08-01T04:54:15;2.50;;;1.77;;
15665;SDS011;20725;51.196;3.510;2022-08-01T04:56:50;2.23;;;2.13;;
15665;SDS011;20725;51.196;3.510;2022-08-01T04:59:21;4.80;;;2.40;;
15665;SDS011;20725;51.196;3.510;2022-08-01T05:05:42;3.93;;;2.20;;
15665;SDS011;20725;51.196;3.510;2022-08-01T05:08:13;3.57;;;1.97;;
15665;SDS011;20725;51.196;3.510;2022-08-01T05:10:54;3.00;;;2.10;;
15665;SDS011;20725;51.196;3.510;2022-08-01T05:13:28;2.90;;;2.10;;
15665;SDS011;20725;51.196;3.510;2022-08-01T05:16:21;6.27;;;2.63;;
15665;SDS011;20725;51.196;3.510;2022-08-01T05:18:54;2.20;;;2.00;;
15665;SDS011;20725;51.196;3.510;2022-08-01T05:21:55;2.03;;;1.90;;
15665;SDS011;20725;51.196;3.510;2022-08-01T05:24:13;2.23;;;2.00;;
15665;SDS011;20725;51.196;3.510;2022-08-01T05:30:04;2.57;;;1.90;;
15665;SDS011;20725;51.196;3.510;2022-08-01T05:32:55;4.30;;;2.30;;
15665;SDS011;20725;51.196;3.510;2022-08-01T05:35:30;2.63;;;1.77;;
15665;SDS011;20725;51.196;3.510;2022-08-01T05:37:58;2.87;;;1.90;;
15665;SDS011;20725;51.196;3.510;2022-08-01T05:40:41;2.03;;;1.80;;
15665;SDS011;20725;51.196;3.510;2022-08-01T05:46:07;4.63;;;2.10;;
15665;SDS011;20725;51.196;3.510;2022-08-01T05:48:51;3.43;;;2.03;;
15665;SDS011;20725;51.196;3.510;2022-08-01T05:51:20;3.50;;;1.90;;
15665;SDS011;20725;51.196;3.510;2022-08-01T05:54:09;2.23;;;1.60;;
15665;SDS011;20725;51.196;3.510;2022-08-01T05:56:51;4.90;;;1.80;;
15665;SDS011;20725;51.196;3.510;2022-08-01T06:02:15;3.07;;;1.70;;
15665;SDS011;20725;51.196;3.510;2022-08-01T06:04:48;2.27;;;1.47;;
15665;SDS011;20725;51.196;3.510;2022-08-01T06:07:19;5.20;;;1.73;;
15665;SDS011;20725;51.196;3.510;2022-08-01T06:09:46;3.67;;;1.60;;
15665;SDS011;20725;51.196;3.510;2022-08-01T06:12:21;2.80;;;1.50;;
15665;SDS011;20725;51.196;3.510;2022-08-01T06:15:16;2.67;;;1.40;;
15665;SDS011;20725;51.196;3.510;2022-08-01T06:18:00;3.30;;;1.17;;
15665;SDS011;20725;51.196;3.510;2022-08-01T06:20:28;2.10;;;1.33;;
15665;SDS011;20725;51.196;3.510;2022-08-01T06:22:58;1.23;;;1.03;;
15665;SDS011;20725;51.196;3.510;2022-08-01T06:25:26;1.97;;;0.90;;
15665;SDS011;20725;51.196;3.510;2022-08-01T06:28:00;2.50;;;1.10;;
15665;SDS011;20725;51.196;3.510;2022-08-01T06:30:39;1.13;;;1.00;;
15665;SDS011;20725;51.196;3.510;2022-08-01T06:33:26;3.17;;;0.97;;
15665;SDS011;20725;51.196;3.510;2022-08-01T06:36:00;1.20;;;0.80;;
15665;SDS011;20725;51.196;3.510;2022-08-01T06:38:44;2.17;;;0.83;;
15665;SDS011;20725;51.196;3.510;2022-08-01T06:41:34;0.77;;;0.70;;
15665;SDS011;20725;51.196;3.510;2022-08-01T06:44:25;1.73;;;1.13;;
15665;SDS011;20725;51.196;3.510;2022-08-01T06:46:57;1.70;;;0.70;;
15665;SDS011;20725;51.196;3.510;2022-08-01T06:49:42;1.10;;;0.90;;
15665;SDS011;20725;51.196;3.510;2022-08-01T06:52:30;0.87;;;0.80;;
15665;SDS011;20725;51.196;3.510;2022-08-01T06:54:59;2.60;;;1.00;;
15665;SDS011;20725;51.196;3.510;2022-08-01T06:57:42;1.93;;;0.70;;
15665;SDS011;20725;51.196;3.510;2022-08-01T07:00:27;1.47;;;0.80;;
15665;SDS011;20725;51.196;3.510;2022-08-01T07:03:04;2.03;;;1.00;;
15665;SDS011;20725;51.196;3.510;2022-08-01T07:05:57;1.70;;;0.90;;
15665;SDS011;20725;51.196;3.510;2022-08-01T07:08:30;2.33;;;0.90;;
15665;SDS011;20725;51.196;3.510;2022-08-01T07:11:05;0.90;;;0.60;;
15665;SDS011;20725;51.196;3.510;2022-08-01T07:13:34;1.70;;;0.80;;
15665;SDS011;20725;51.196;3.510;2022-08-01T07:16:03;0.57;;;0.53;;
15665;SDS011;20725;51.196;3.510;2022-08-01T07:21:14;2.37;;;1.10;;
15665;SDS011;20725;51.196;3.510;2022-08-01T07:23:42;1.63;;;0.80;;
15665;SDS011;20725;51.196;3.510;2022-08-01T07:26:11;1.33;;;0.70;;
15665;SDS011;20725;51.196;3.510;2022-08-01T07:28:38;1.27;;;0.50;;
15665;SDS011;20725;51.196;3.510;2022-08-01T07:31:06;1.07;;;0.47;;
15665;SDS011;20725;51.196;3.510;2022-08-01T07:33:33;0.80;;;0.53;;
15665;SDS011;20725;51.196;3.510;2022-08-01T07:39:08;0.97;;;0.30;;
15665;SDS011;20725;51.196;3.510;2022-08-01T07:41:57;1.63;;;0.60;;
15665;SDS011;20725;51.196;3.510;2022-08-01T07:44:43;0.80;;;0.50;;
15665;SDS011;20725;51.196;3.510;2022-08-01T07:47:12;0.60;;;0.60;;
15665;SDS011;20725;51.196;3.510;2022-08-01T07:49:58;0.50;;;0.50;;
15665;SDS011;20725;51.196;3.510;2022-08-01T07:52:51;0.95;;;0.60;;
15665;SDS011;20725;51.196;3.510;2022-08-01T07:55:25;0.73;;;0.50;;
15665;SDS011;20725;51.196;3.510;2022-08-01T07:58:06;0.80;;;0.40;;
15665;SDS011;20725;51.196;3.510;2022-08-01T08:00:52;0.88;;;0.52;;
15665;SDS011;20725;51.196;3.510;2022-08-01T08:03:25;1.02;;;0.43;;
15665;SDS011;20725;51.196;3.510;2022-08-01T08:06:30;1.92;;;0.75;;
15665;SDS011;20725;51.196;3.510;2022-08-01T08:09:01;0.60;;;0.60;;
15665;SDS011;20725;51.196;3.510;2022-08-01T08:11:36;1.15;;;0.60;;
15665;SDS011;20725;51.196;3.510;2022-08-01T08:14:21;2.78;;;0.63;;
15665;SDS011;20725;51.196;3.510;2022-08-01T08:16:56;3.35;;;0.90;;
15665;SDS011;20725;51.196;3.510;2022-08-01T08:19:33;1.38;;;1.08;;
15665;SDS011;20725;51.196;3.510;2022-08-01T08:22:04;1.77;;;0.95;;
15665;SDS011;20725;51.196;3.510;2022-08-01T08:24:36;1.30;;;1.00;;
15665;SDS011;20725;51.196;3.510;2022-08-01T08:27:14;1.65;;;0.90;;
15665;SDS011;20725;51.196;3.510;2022-08-01T08:29:59;1.98;;;1.08;;
15665;SDS011;20725;51.196;3.510;2022-08-01T08:32:46;0.80;;;0.80;;
15665;SDS011;20725;51.196;3.510;2022-08-01T08:35:28;1.98;;;0.98;;
15665;SDS011;20725;51.196;3.510;2022-08-01T08:38:15;1.85;;;0.93;;
15665;SDS011;20725;51.196;3.510;2022-08-01T08:43:52;0.77;;;0.75;;
15665;SDS011;20725;51.196;3.510;2022-08-01T08:46:24;2.25;;;0.63;;
15665;SDS011;20725;51.196;3.510;2022-08-01T08:49:05;1.63;;;0.63;;
15665;SDS011;20725;51.196;3.510;2022-08-01T08:51:34;1.48;;;0.75;;
15665;SDS011;20725;51.196;3.510;2022-08-01T08:54:06;0.70;;;0.70;;
15665;SDS011;20725;51.196;3.510;2022-08-01T08:56:44;2.05;;;0.80;;
15665;SDS011;20725;51.196;3.510;2022-08-01T08:59:25;0.98;;;0.75;;
15665;SDS011;20725;51.196;3.510;2022-08-01T09:02:05;3.28;;;0.98;;
15665;SDS011;20725;51.196;3.510;2022-08-01T09:04:46;6.88;;;1.15;;
15665;SDS011;20725;51.196;3.510;2022-08-01T09:07:21;2.30;;;1.05;;
15665;SDS011;20725;51.196;3.510;2022-08-01T09:10:09;1.42;;;0.90;;
15665;SDS011;20725;51.196;3.510;2022-08-01T09:15:45;2.03;;;1.10;;
15665;SDS011;20725;51.196;3.510;2022-08-01T09:18:31;2.00;;;0.95;;
15665;SDS011;20725;51.196;3.510;2022-08-01T09:21:17;1.65;;;0.85;;
15665;SDS011;20725;51.196;3.510;2022-08-01T09:23:55;2.55;;;1.20;;
15665;SDS011;20725;51.196;3.510;2022-08-01T09:26:34;2.08;;;1.25;;
15665;SDS011;20725;51.196;3.510;2022-08-01T09:29:06;1.38;;;1.10;;
15665;SDS011;20725;51.196;3.510;2022-08-01T09:34:38;1.48;;;1.00;;
15665;SDS011;20725;51.196;3.510;2022-08-01T09:37:07;1.55;;;1.00;;
15665;SDS011;20725;51.196;3.510;2022-08-01T09:39:39;1.75;;;1.15;;
15665;SDS011;20725;51.196;3.510;2022-08-01T09:42:23;1.00;;;0.90;;
15665;SDS011;20725;51.196;3.510;2022-08-01T09:44:56;2.08;;;1.10;;
15665;SDS011;20725;51.196;3.510;2022-08-01T09:50:15;1.67;;;1.13;;
15665;SDS011;20725;51.196;3.510;2022-08-01T09:53:05;1.58;;;1.00;;
15665;SDS011;20725;51.196;3.510;2022-08-01T09:55:34;0.98;;;0.85;;
15665;SDS011;20725;51.196;3.510;2022-08-01T09:58:07;1.13;;;0.88;;
15665;SDS011;20725;51.196;3.510;2022-08-01T10:00:57;1.25;;;0.95;;
15665;SDS011;20725;51.196;3.510;2022-08-01T10:03:40;3.70;;;1.10;;
15665;SDS011;20725;51.196;3.510;2022-08-01T10:06:21;1.45;;;1.10;;
15665;SDS011;20725;51.196;3.510;2022-08-01T10:08:51;1.77;;;0.90;;
15665;SDS011;20725;51.196;3.510;2022-08-01T10:11:24;3.00;;;1.10;;
15665;SDS011;20725;51.196;3.510;2022-08-01T10:14:07;1.92;;;1.10;;
15665;SDS011;20725;51.196;3.510;2022-08-01T10:16:39;1.88;;;1.17;;
15665;SDS011;20725;51.196;3.510;2022-08-01T10:19:16;2.88;;;1.27;;
15665;SDS011;20725;51.196;3.510;2022-08-01T10:21:58;1.48;;;1.15;;
15665;SDS011;20725;51.196;3.510;2022-08-01T10:24:29;1.35;;;1.25;;
15665;SDS011;20725;51.196;3.510;2022-08-01T10:27:03;2.33;;;1.00;;
15665;SDS011;20725;51.196;3.510;2022-08-01T10:29:37;1.38;;;0.80;;
15665;SDS011;20725;51.196;3.510;2022-08-01T10:32:07;1.88;;;1.10;;
15665;SDS011;20725;51.196;3.510;2022-08-01T10:34:40;2.50;;;1.30;;
15665;SDS011;20725;51.196;3.510;2022-08-01T10:37:13;3.95;;;1.00;;
15665;SDS011;20725;51.196;3.510;2022-08-01T10:39:45;2.08;;;1.00;;
15665;SDS011;20725;51.196;3.510;2022-08-01T10:42:40;2.00;;;1.10;;
15665;SDS011;20725;51.196;3.510;2022-08-01T10:45:26;2.15;;;0.98;;
15665;SDS011;20725;51.196;3.510;2022-08-01T10:48:02;1.77;;;1.38;;
15665;SDS011;20725;51.196;3.510;2022-08-01T10:50:39;1.42;;;1.10;;
15665;SDS011;20725;51.196;3.510;2022-08-01T10:53:12;3.67;;;1.20;;
15665;SDS011;20725;51.196;3.510;2022-08-01T10:55:57;1.92;;;1.00;;
15665;SDS011;20725;51.196;3.510;2022-08-01T10:58:54;2.38;;;1.20;;
15665;SDS011;20725;51.196;3.510;2022-08-01T11:01:38;1.60;;;0.90;;
15665;SDS011;20725;51.196;3.510;2022-08-01T11:04:16;2.05;;;1.10;;
15665;SDS011;20725;51.196;3.510;2022-08-01T11:06:52;2.47;;;1.20;;
15665;SDS011;20725;51.196;3.510;2022-08-01T11:09:30;3.05;;;1.17;;
15665;SDS011;20725;51.196;3.510;2022-08-01T11:12:05;2.78;;;1.15;;
15665;SDS011;20725;51.196;3.510;2022-08-01T11:15:16;3.88;;;1.10;;
15665;SDS011;20725;51.196;3.510;2022-08-01T11:17:52;2.65;;;1.02;;
15665;SDS011;20725;51.196;3.510;2022-08-01T11:20:28;2.67;;;0.80;;
15665;SDS011;20725;51.196;3.510;2022-08-01T11:26:13;2.85;;;1.23;;
15665;SDS011;20725;51.196;3.510;2022-08-01T11:31:53;5.93;;;1.15;;
15665;SDS011;20725;51.196;3.510;2022-08-01T11:34:58;3.90;;;1.05;;
15665;SDS011;20725;51.196;3.510;2022-08-01T11:38:05;1.50;;;0.90;;
15665;SDS011;20725;51.196;3.510;2022-08-01T11:41:11;2.83;;;1.25;;
15665;SDS011;20725;51.196;3.510;2022-08-01T11:43:55;1.50;;;0.95;;
15665;SDS011;20725;51.196;3.510;2022-08-01T11:46:59;1.23;;;1.00;;
15665;SDS011;20725;51.196;3.510;2022-08-01T11:49:43;1.30;;;0.93;;
15665;SDS011;20725;51.196;3.510;2022-08-01T11:52:23;3.55;;;1.30;;
15665;SDS011;20725;51.196;3.510;2022-08-01T11:54:55;3.22;;;1.02;;
15665;SDS011;20725;51.196;3.510;2022-08-01T11:57:25;3.53;;;0.95;;
15665;SDS011;20725;51.196;3.510;2022-08-01T12:00:00;5.55;;;1.30;;
15665;SDS011;20725;51.196;3.510;2022-08-01T12:02:35;3.65;;;1.00;;
15665;SDS011;20725;51.196;3.510;2022-08-01T12:05:04;1.27;;;0.90;;
15665;SDS011;20725;51.196;3.510;2022-08-01T12:07:41;2.47;;;1.13;;
15665;SDS011;20725;51.196;3.510;2022-08-01T12:10:12;2.53;;;1.20;;
15665;SDS011;20725;51.196;3.510;2022-08-01T12:12:52;1.52;;;0.70;;
15665;SDS011;20725;51.196;3.510;2022-08-01T12:15:24;1.70;;;1.00;;
15665;SDS011;20725;51.196;3.510;2022-08-01T12:17:57;3.58;;;1.08;;
15665;SDS011;20725;51.196;3.510;2022-08-01T12:20:29;5.18;;;0.90;;
15665;SDS011;20725;51.196;3.510;2022-08-01T12:23:01;4.05;;;1.10;;
15665;SDS011;20725;51.196;3.510;2022-08-01T12:25:34;4.57;;;1.20;;
15665;SDS011;20725;51.196;3.510;2022-08-01T12:28:02;7.40;;;1.02;;
15665;SDS011;20725;51.196;3.510;2022-08-01T12:30:33;2.90;;;1.10;;
15665;SDS011;20725;51.196;3.510;2022-08-01T12:33:06;5.10;;;0.90;;
15665;SDS011;20725;51.196;3.510;2022-08-01T12:35:35;2.28;;;1.05;;
15665;SDS011;20725;51.196;3.510;2022-08-01T12:38:04;2.13;;;0.77;;
15665;SDS011;20725;51.196;3.510;2022-08-01T12:40:46;2.67;;;1.00;;
15665;SDS011;20725;51.196;3.510;2022-08-01T12:44:51;2.42;;;1.10;;
15665;SDS011;20725;51.196;3.510;2022-08-01T12:46:18;2.40;;;1.15;;
15665;SDS011;20725;51.196;3.510;2022-08-01T12:48:47;2.35;;;1.00;;
15665;SDS011;20725;51.196;3.510;2022-08-01T12:51:29;1.52;;;1.00;;
15665;SDS011;20725;51.196;3.510;2022-08-01T12:54:16;2.60;;;0.98;;
15665;SDS011;20725;51.196;3.510;2022-08-01T12:56:48;1.65;;;1.00;;
15665;SDS011;20725;51.196;3.510;2022-08-01T12:59:21;2.92;;;1.10;;
15665;SDS011;20725;51.196;3.510;2022-08-01T13:01:50;4.28;;;1.20;;
15665;SDS011;20725;51.196;3.510;2022-08-01T13:04:21;2.13;;;1.02;;
15665;SDS011;20725;51.196;3.510;2022-08-01T13:06:52;5.72;;;0.90;;
15665;SDS011;20725;51.196;3.510;2022-08-01T13:09:25;0.95;;;0.70;;
15665;SDS011;20725;51.196;3.510;2022-08-01T13:11:54;2.88;;;0.90;;
15665;SDS011;20725;51.196;3.510;2022-08-01T13:14:28;1.45;;;0.70;;
15665;SDS011;20725;51.196;3.510;2022-08-01T13:16:55;2.03;;;0.70;;
15665;SDS011;20725;51.196;3.510;2022-08-01T13:22:07;1.45;;;0.80;;
15665;SDS011;20725;51.196;3.510;2022-08-01T13:24:34;2.67;;;1.00;;
15665;SDS011;20725;51.196;3.510;2022-08-01T13:27:03;0.93;;;0.70;;
15665;SDS011;20725;51.196;3.510;2022-08-01T13:29:49;2.72;;;1.10;;
15665;SDS011;20725;51.196;3.510;2022-08-01T13:32:18;3.60;;;0.93;;
15665;SDS011;20725;51.196;3.510;2022-08-01T13:34:46;1.10;;;0.70;;
15665;SDS011;20725;51.196;3.510;2022-08-01T13:38:00;1.48;;;0.85;;
15665;SDS011;20725;51.196;3.510;2022-08-01T13:40:37;1.85;;;0.77;;
15665;SDS011;20725;51.196;3.510;2022-08-01T13:43:19;3.38;;;0.82;;
15665;SDS011;20725;51.196;3.510;2022-08-01T13:45:54;1.80;;;0.80;;
15665;SDS011;20725;51.196;3.510;2022-08-01T13:48:21;3.28;;;1.05;;
15665;SDS011;20725;51.196;3.510;2022-08-01T13:50:48;2.47;;;1.10;;
15665;SDS011;20725;51.196;3.510;2022-08-01T13:53:21;1.70;;;0.82;;
15665;SDS011;20725;51.196;3.510;2022-08-01T13:55:57;1.33;;;0.80;;
15665;SDS011;20725;51.196;3.510;2022-08-01T13:58:27;1.05;;;0.65;;
15665;SDS011;20725;51.196;3.510;2022-08-01T14:01:16;1.30;;;0.82;;
15665;SDS011;20725;51.196;3.510;2022-08-01T14:03:44;2.10;;;0.95;;
15665;SDS011;20725;51.196;3.510;2022-08-01T14:06:49;2.97;;;0.82;;
15665;SDS011;20725;51.196;3.510;2022-08-01T14:09:08;1.73;;;1.08;;
15665;SDS011;20725;51.196;3.510;2022-08-01T14:11:53;4.70;;;0.85;;
15665;SDS011;20725;51.196;3.510;2022-08-01T14:14:29;0.90;;;0.65;;
15665;SDS011;20725;51.196;3.510;2022-08-01T14:17:08;3.75;;;1.00;;
15665;SDS011;20725;51.196;3.510;2022-08-01T14:19:38;3.17;;;1.00;;
15665;SDS011;20725;51.196;3.510;2022-08-01T14:22:11;4.63;;;1.23;;
15665;SDS011;20725;51.196;3.510;2022-08-01T14:24:45;2.22;;;0.90;;
15665;SDS011;20725;51.196;3.510;2022-08-01T14:27:25;3.90;;;1.17;;
15665;SDS011;20725;51.196;3.510;2022-08-01T14:43:01;3.17;;;0.93;;
15665;SDS011;20725;51.196;3.510;2022-08-01T14:55:05;4.75;;;1.45;;
15665;SDS011;20725;51.196;3.510;2022-08-01T15:11:55;10.15;;;1.27;;
15665;SDS011;20725;51.196;3.510;2022-08-01T15:15:12;3.70;;;0.85;;
15665;SDS011;20725;51.196;3.510;2022-08-01T15:20:22;4.95;;;0.90;;
15665;SDS011;20725;51.196;3.510;2022-08-01T15:39:26;5.25;;;0.95;;
15665;SDS011;20725;51.196;3.510;2022-08-01T15:45:39;2.47;;;0.90;;
15665;SDS011;20725;51.196;3.510;2022-08-01T15:52:43;1.95;;;0.93;;
15665;SDS011;20725;51.196;3.510;2022-08-01T15:58:28;2.75;;;1.00;;
15665;SDS011;20725;51.196;3.510;2022-08-01T16:11:19;1.15;;;0.80;;
15665;SDS011;20725;51.196;3.510;2022-08-01T16:13:49;4.93;;;0.98;;
15665;SDS011;20725;51.196;3.510;2022-08-01T16:16:53;2.97;;;0.98;;
15665;SDS011;20725;51.196;3.510;2022-08-01T16:19:26;1.85;;;1.05;;
15665;SDS011;20725;51.196;3.510;2022-08-01T16:22:23;1.73;;;1.00;;
15665;SDS011;20725;51.196;3.510;2022-08-01T16:25:02;2.65;;;1.10;;
15665;SDS011;20725;51.196;3.510;2022-08-01T16:27:49;2.58;;;1.35;;
15665;SDS011;20725;51.196;3.510;2022-08-01T16:30:46;2.90;;;1.10;;
15665;SDS011;20725;51.196;3.510;2022-08-01T16:33:14;1.95;;;0.93;;
15665;SDS011;20725;51.196;3.510;2022-08-01T16:38:56;1.60;;;0.80;;
15665;SDS011;20725;51.196;3.510;2022-08-01T16:41:32;3.93;;;1.07;;
15665;SDS011;20725;51.196;3.510;2022-08-01T16:46:54;3.17;;;1.13;;
15665;SDS011;20725;51.196;3.510;2022-08-01T16:49:28;2.43;;;0.80;;
15665;SDS011;20725;51.196;3.510;2022-08-01T16:51:58;2.37;;;1.03;;
15665;SDS011;20725;51.196;3.510;2022-08-01T16:55:05;1.50;;;1.03;;
15665;SDS011;20725;51.196;3.510;2022-08-01T16:57:45;2.20;;;0.93;;
15665;SDS011;20725;51.196;3.510;2022-08-01T17:00:28;1.80;;;1.10;;
15665;SDS011;20725;51.196;3.510;2022-08-01T17:03:24;5.43;;;0.93;;
15665;SDS011;20725;51.196;3.510;2022-08-01T17:06:20;1.57;;;0.90;;
15665;SDS011;20725;51.196;3.510;2022-08-01T17:08:57;1.47;;;1.00;;
15665;SDS011;20725;51.196;3.510;2022-08-01T17:11:38;2.40;;;1.07;;
15665;SDS011;20725;51.196;3.510;2022-08-01T17:14:12;1.03;;;0.93;;
15665;SDS011;20725;51.196;3.510;2022-08-01T17:17:01;3.40;;;1.27;;
15665;SDS011;20725;51.196;3.510;2022-08-01T17:19:40;2.20;;;1.10;;
15665;SDS011;20725;51.196;3.510;2022-08-01T17:22:34;3.43;;;1.00;;
15665;SDS011;20725;51.196;3.510;2022-08-01T17:25:07;4.03;;;1.10;;
15665;SDS011;20725;51.196;3.510;2022-08-01T17:28:01;2.97;;;1.30;;
15665;SDS011;20725;51.196;3.510;2022-08-01T17:30:53;4.53;;;1.33;;
15665;SDS011;20725;51.196;3.510;2022-08-01T17:34:14;1.30;;;0.90;;
15665;SDS011;20725;51.196;3.510;2022-08-01T17:37:07;1.57;;;0.80;;
15665;SDS011;20725;51.196;3.510;2022-08-01T17:40:12;1.83;;;1.00;;
15665;SDS011;20725;51.196;3.510;2022-08-01T17:42:29;3.10;;;0.93;;
15665;SDS011;20725;51.196;3.510;2022-08-01T17:45:08;2.57;;;0.87;;
15665;SDS011;20725;51.196;3.510;2022-08-01T17:47:42;2.17;;;1.13;;
15665;SDS011;20725;51.196;3.510;2022-08-01T17:53:00;2.50;;;0.90;;
15665;SDS011;20725;51.196;3.510;2022-08-01T17:55:37;1.23;;;0.90;;
15665;SDS011;20725;51.196;3.510;2022-08-01T17:58:30;1.73;;;1.10;;
15665;SDS011;20725;51.196;3.510;2022-08-01T18:00:59;2.83;;;0.97;;
15665;SDS011;20725;51.196;3.510;2022-08-01T18:03:26;1.67;;;0.90;;
15665;SDS011;20725;51.196;3.510;2022-08-01T18:06:30;2.53;;;1.00;;
15665;SDS011;20725;51.196;3.510;2022-08-01T18:09:28;3.80;;;1.27;;
15665;SDS011;20725;51.196;3.510;2022-08-01T18:12:13;1.70;;;1.10;;